Time;durP1;ratioP1;P1;durP2;ratioP2;P2;SDS_P1;SDS_P2;PMS_P1;PMS_P2;Temp;Humidity;BMP_temperature;BMP_pressure;BME280_temperature;BME280_humidity;BME280_pressure;Samples;Min_cycle;Max_cycle;Signal;HPM_P1;HPM_P2
2022/09/23 00:04:52;;;;;;;3.40;3.10;;;11.50;32.80;;;;;;10531025;28;20231;-72
2022/09/23 00:09:55;;;;;;;3.30;3.00;;;11.40;32.80;;;;;;10530591;28;20268;-72
2022/09/23 00:14:58;;;;;;;3.70;3.07;;;11.40;32.70;;;;;;10530570;28;20231;-72
2022/09/23 00:20:03;;;;;;;4.47;3.20;;;11.30;32.60;;;;;;10530551;28;20749;-72
2022/09/23 00:25:09;;;;;;;3.03;2.73;;;11.30;33.00;;;;;;10530722;28;20253;-72
2022/09/23 00:30:12;;;;;;;3.17;2.97;;;11.30;32.90;;;;;;10530367;28;20747;-73
2022/09/23 00:35:17;;;;;;;3.80;3.50;;;11.30;32.80;;;;;;10530285;28;20297;-72
2022/09/23 00:40:20;;;;;;;3.80;3.20;;;11.30;33.00;;;;;;10530690;28;20238;-72
2022/09/23 00:45:23;;;;;;;3.00;2.70;;;11.30;32.90;;;;;;10530108;28;20234;-72
2022/09/23 00:50:32;;;;;;;4.23;3.50;;;11.20;32.80;;;;;;10529987;28;20277;-72
2022/09/23 00:55:39;;;;;;;2.63;2.43;;;11.20;33.20;;;;;;10530174;28;20219;-72
2022/09/23 01:00:42;;;;;;;3.43;3.10;;;11.20;33.10;;;;;;10526419;28;20223;-72
2022/09/23 01:05:47;;;;;;;2.80;2.60;;;11.10;32.90;;;;;;10526326;28;20239;-72
2022/09/23 01:10:59;;;;;;;3.13;2.93;;;11.10;33.10;;;;;;10537732;28;20224;-72
2022/09/23 01:16:09;;;;;;;3.23;2.93;;;11.00;33.20;;;;;;10537955;28;20228;-72
2022/09/23 01:21:33;;;;;;;3.20;2.90;;;11.00;33.20;;;;;;10537358;28;20707;-72
2022/09/23 01:26:55;;;;;;;3.40;3.13;;;11.00;33.40;;;;;;10537936;28;20223;-72
2022/09/23 01:32:07;;;;;;;2.27;2.17;;;10.90;33.40;;;;;;10537097;28;20240;-72
2022/09/23 01:37:17;;;;;;;1.90;1.80;;;10.90;33.10;;;;;;10537657;28;20278;-72
2022/09/23 01:42:29;;;;;;;2.17;2.07;;;10.80;32.80;;;;;;10536691;28;20232;-72
2022/09/23 01:47:38;;;;;;;2.47;2.27;;;10.80;33.10;;;;;;10535853;28;20703;-72
2022/09/23 01:52:46;;;;;;;2.13;2.00;;;10.70;33.00;;;;;;10536171;28;20231;-72
2022/09/23 01:57:55;;;;;;;2.93;2.23;;;10.60;32.90;;;;;;10536166;28;20231;-72
2022/09/23 02:03:07;;;;;;;2.43;2.23;;;10.60;33.10;;;;;;10535950;28;20220;-72
2022/09/23 02:08:14;;;;;;;2.10;2.00;;;10.60;33.10;;;;;;10535994;28;20235;-72
2022/09/23 02:13:23;;;;;;;1.93;1.83;;;10.50;32.60;;;;;;10535493;28;20228;-72
2022/09/23 02:18:36;;;;;;;2.00;1.90;;;10.40;32.60;;;;;;10534497;28;20228;-72
2022/09/23 02:23:43;;;;;;;2.43;1.90;;;10.30;32.90;;;;;;10535452;28;20273;-72
2022/09/23 02:28:54;;;;;;;2.70;2.50;;;10.30;33.00;;;;;;10533421;28;20253;-72
2022/09/23 02:34:04;;;;;;;2.10;2.00;;;10.20;33.20;;;;;;10535418;28;20281;-72
2022/09/23 02:39:12;;;;;;;2.10;2.00;;;10.20;33.20;;;;;;10534849;28;20735;-72
2022/09/23 02:44:18;;;;;;;2.43;1.80;;;10.10;32.90;;;;;;10533922;28;20579;-72
2022/09/23 02:49:26;;;;;;;2.13;2.00;;;10.10;32.80;;;;;;10534144;28;20232;-72
2022/09/23 02:54:29;;;;;;;2.60;2.40;;;10.00;33.10;;;;;;10533758;28;20285;-72
2022/09/23 02:59:35;;;;;;;2.20;2.10;;;10.00;32.80;;;;;;10534127;28;20228;-72
2022/09/23 03:04:48;;;;;;;2.40;2.30;;;10.00;32.90;;;;;;10533923;28;20232;-72
2022/09/23 03:09:58;;;;;;;2.47;2.27;;;10.00;33.30;;;;;;10534589;28;20239;-72
2022/09/23 03:15:09;;;;;;;2.63;2.43;;;9.90;34.20;;;;;;10534195;28;20757;-72
2022/09/23 03:20:21;;;;;;;2.70;2.50;;;9.90;34.20;;;;;;10533670;28;20277;-72
2022/09/23 03:25:27;;;;;;;2.47;2.27;;;9.90;34.30;;;;;;10532688;28;20538;-72
2022/09/23 03:30:34;;;;;;;2.67;2.40;;;9.80;34.00;;;;;;10532778;28;20254;-72
2022/09/23 03:41:03;;;;;;;2.87;2.57;;;9.70;34.40;;;;;;10530488;28;20695;-71
2022/09/23 03:46:08;;;;;;;3.00;2.80;;;9.70;34.00;;;;;;10532120;28;20236;-71
2022/09/23 03:51:21;;;;;;;2.90;2.70;;;9.60;34.10;;;;;;10531336;28;20219;-71
2022/09/23 03:56:24;;;;;;;3.20;2.90;;;9.60;34.50;;;;;;10531773;28;20228;-71
2022/09/23 04:01:28;;;;;;;2.70;2.50;;;9.60;34.00;;;;;;10530871;28;20227;-71
2022/09/23 04:06:33;;;;;;;2.73;2.53;;;9.50;33.90;;;;;;10531176;28;20231;-71
2022/09/23 04:11:36;;;;;;;3.33;2.57;;;9.50;34.20;;;;;;10531002;28;20231;-71
2022/09/23 04:16:39;;;;;;;2.97;2.47;;;9.50;34.00;;;;;;10532196;28;20277;-71
2022/09/23 04:21:44;;;;;;;2.33;2.13;;;9.50;34.20;;;;;;10532750;28;20591;-71
2022/09/23 04:26:51;;;;;;;3.13;2.80;;;9.40;34.30;;;;;;10531574;28;20278;-71
2022/09/23 04:31:54;;;;;;;4.60;2.30;;;9.30;34.30;;;;;;10532472;28;20994;-71
2022/09/23 04:36:59;;;;;;;2.53;2.33;;;9.30;34.30;;;;;;10532201;28;20310;-71
2022/09/23 04:42:03;;;;;;;3.47;2.37;;;9.20;34.30;;;;;;10534272;28;20227;-71
2022/09/23 04:47:06;;;;;;;2.47;2.27;;;9.20;34.20;;;;;;10540984;28;20235;-71
2022/09/23 04:52:11;;;;;;;2.60;2.40;;;9.20;34.30;;;;;;10540532;28;20322;-71
2022/09/23 04:57:14;;;;;;;2.67;2.47;;;9.20;34.40;;;;;;10540267;28;20384;-71
2022/09/23 05:02:17;;;;;;;3.43;2.90;;;9.20;34.30;;;;;;10540096;28;20239;-71
2022/09/23 05:07:22;;;;;;;4.90;4.50;;;9.20;34.30;;;;;;10540287;28;20235;-72
2022/09/23 05:12:25;;;;;;;5.50;5.10;;;9.10;34.50;;;;;;10539579;28;20223;-72
2022/09/23 05:17:30;;;;;;;4.63;4.33;;;9.10;34.20;;;;;;10539005;28;20250;-71
2022/09/23 05:22:34;;;;;;;4.30;4.00;;;9.10;34.40;;;;;;10539213;28;20304;-71
2022/09/23 05:27:38;;;;;;;3.57;3.23;;;9.00;35.00;;;;;;10535129;28;20239;-71
2022/09/23 05:32:41;;;;;;;3.23;2.93;;;9.00;34.80;;;;;;10537490;28;20246;-71
2022/09/23 05:37:45;;;;;;;3.40;3.20;;;9.00;34.80;;;;;;10538676;28;20297;-72
2022/09/23 05:42:50;;;;;;;2.80;2.60;;;9.00;35.00;;;;;;10538502;28;20272;-71
2022/09/23 05:47:53;;;;;;;2.90;2.70;;;9.00;34.80;;;;;;10537693;28;21040;-71
2022/09/23 05:52:58;;;;;;;2.80;2.60;;;9.00;34.80;;;;;;10537266;28;20226;-72
2022/09/23 05:58:01;;;;;;;3.17;2.70;;;9.00;35.00;;;;;;10535218;28;20246;-71
2022/09/23 06:03:05;;;;;;;3.07;2.87;;;9.00;35.00;;;;;;10534869;28;20281;-70
2022/09/23 06:08:11;;;;;;;2.90;2.70;;;9.00;35.20;;;;;;10535010;28;20256;-71
2022/09/23 06:13:14;;;;;;;4.70;3.63;;;9.10;35.60;;;;;;10535018;28;20399;-70
2022/09/23 06:18:20;;;;;;;3.90;3.20;;;9.10;35.50;;;;;;10523652;28;20231;-70
2022/09/23 06:23:24;;;;;;;3.93;3.53;;;9.20;35.60;;;;;;10533806;28;20313;-70
2022/09/23 06:28:32;;;;;;;3.83;3.17;;;9.20;36.10;;;;;;10533343;28;20227;-70
2022/09/23 06:33:35;;;;;;;4.30;3.90;;;9.20;36.40;;;;;;10533908;28;20219;-71
2022/09/23 06:38:43;;;;;;;3.83;3.53;;;9.30;36.10;;;;;;10533443;28;20267;-70
2022/09/23 06:43:46;;;;;;;4.87;3.90;;;9.30;36.70;;;;;;10533212;28;20231;-72
2022/09/23 06:48:50;;;;;;;5.87;4.67;;;9.40;36.50;;;;;;10533096;28;20437;-71
2022/09/23 06:53:54;;;;;;;7.73;5.13;;;9.40;36.60;;;;;;10531634;28;20277;-74
2022/09/23 06:58:58;;;;;;;5.83;5.33;;;9.40;37.20;;;;;;10524323;28;20231;-72
2022/09/23 07:04:01;;;;;;;6.20;5.60;;;9.50;37.00;;;;;;10524145;28;20231;-72
2022/09/23 07:09:07;;;;;;;7.00;5.30;;;9.60;37.40;;;;;;10513699;28;20735;-72
2022/09/23 07:14:10;;;;;;;6.57;5.80;;;9.70;38.10;;;;;;10514309;28;21181;-74
2022/09/23 07:19:14;;;;;;;8.93;6.80;;;9.80;39.20;;;;;;10522854;28;20282;-72
2022/09/23 07:24:18;;;;;;;7.37;6.67;;;10.00;38.40;;;;;;10523920;28;20281;-72
2022/09/23 07:29:21;;;;;;;7.23;6.53;;;10.20;38.50;;;;;;10526914;28;20243;-73
2022/09/23 07:34:25;;;;;;;7.97;7.27;;;10.40;38.20;;;;;;10529816;28;20231;-73
2022/09/23 07:39:29;;;;;;;8.50;7.80;;;10.50;38.40;;;;;;10530838;28;20251;-72
2022/09/23 07:44:33;;;;;;;7.67;6.97;;;10.70;39.40;;;;;;10530997;28;20222;-72
2022/09/23 07:49:37;;;;;;;7.03;6.30;;;10.90;39.00;;;;;;10530563;28;20235;-72
2022/09/23 07:54:41;;;;;;;8.67;6.97;;;11.10;39.10;;;;;;10530418;28;20227;-73
2022/09/23 07:59:44;;;;;;;7.10;6.50;;;11.30;40.00;;;;;;10530680;28;20223;-72
2022/09/23 08:04:49;;;;;;;7.17;6.57;;;11.60;39.60;;;;;;10519445;28;20220;-72
2022/09/23 08:09:56;;;;;;;6.63;5.93;;;11.90;40.50;;;;;;10530569;28;20799;-73
2022/09/23 08:15:01;;;;;;;6.57;5.83;;;12.20;40.10;;;;;;10530117;28;20603;-73
2022/09/23 08:20:05;;;;;;;5.57;5.17;;;12.60;39.60;;;;;;10529078;28;20227;-73
2022/09/23 08:25:10;;;;;;;6.47;5.87;;;12.90;39.50;;;;;;10529627;28;20248;-73
2022/09/23 08:30:13;;;;;;;6.03;5.57;;;13.30;39.80;;;;;;10529608;28;20265;-72
2022/09/23 08:35:16;;;;;;;8.73;5.17;;;13.60;39.50;;;;;;10529731;28;20235;-72
2022/09/23 08:40:21;;;;;;;6.00;5.40;;;13.90;39.10;;;;;;10529596;28;20227;-72
2022/09/23 08:45:27;;;;;;;5.67;5.00;;;14.20;39.20;;;;;;10530510;28;20251;-73
2022/09/23 08:50:38;;;;;;;5.00;4.60;;;14.50;38.70;;;;;;10530218;28;20243;-73
2022/09/23 08:55:47;;;;;;;5.67;5.23;;;14.80;38.40;;;;;;10529951;28;20228;-72
2022/09/23 09:01:03;;;;;;;5.17;4.77;;;15.10;38.40;;;;;;10529434;28;20707;-72
2022/09/23 09:06:10;;;;;;;4.63;4.23;;;15.40;38.80;;;;;;10486909;28;20247;-74
2022/09/23 09:11:16;;;;;;;4.60;4.20;;;15.60;38.00;;;;;;10486966;28;20235;-73
2022/09/23 09:16:38;;;;;;;4.57;4.17;;;15.90;37.60;;;;;;10486718;28;20232;-73
2022/09/23 09:22:03;;;;;;;4.30;4.00;;;16.20;37.50;;;;;;10486727;28;20290;-73
2022/09/23 09:27:12;;;;;;;4.33;4.03;;;16.50;37.20;;;;;;10486617;28;20247;-72
2022/09/23 09:32:25;;;;;;;4.53;4.17;;;16.70;36.30;;;;;;10494316;28;20224;-72
2022/09/23 09:37:34;;;;;;;3.63;3.33;;;16.90;36.10;;;;;;10494041;28;20652;-73
2022/09/23 09:42:41;;;;;;;3.30;3.10;;;17.20;36.10;;;;;;10493748;28;20224;-73
2022/09/23 09:47:51;;;;;;;3.50;3.20;;;17.40;35.60;;;;;;10493266;28;20236;-73
2022/09/23 09:53:25;;;;;;;3.10;2.80;;;17.60;35.70;;;;;;10493174;28;20598;-72
2022/09/23 09:58:40;;;;;;;3.70;2.90;;;17.80;35.50;;;;;;10521734;28;20228;-74
2022/09/23 10:03:44;;;;;;;3.40;3.10;;;18.10;35.10;;;;;;10533877;28;20280;-74
2022/09/23 10:09:03;;;;;;;3.00;2.80;;;18.30;35.10;;;;;;10534717;28;20228;-73
2022/09/23 10:14:12;;;;;;;2.90;2.70;;;18.40;35.10;;;;;;10555314;28;20249;-73
2022/09/23 10:19:25;;;;;;;3.63;3.40;;;18.60;34.30;;;;;;10576364;28;20231;-73
2022/09/23 10:24:31;;;;;;;3.00;2.70;;;18.80;33.60;;;;;;10576154;28;20226;-73
2022/09/23 10:29:41;;;;;;;3.37;3.10;;;18.90;34.10;;;;;;10575212;28;20227;-72
2022/09/23 10:34:47;;;;;;;3.30;2.80;;;19.00;33.10;;;;;;10575762;28;20223;-73
2022/09/23 10:50:49;;;;;;;3.10;2.90;;;19.40;33.40;;;;;;10575410;28;20294;-73
2022/09/23 10:56:14;;;;;;;3.00;2.80;;;19.50;33.20;;;;;;10539090;28;20373;-74
2022/09/23 11:01:29;;;;;;;3.47;3.20;;;19.50;32.40;;;;;;10532518;28;20224;-73
2022/09/23 11:06:46;;;;;;;2.93;2.73;;;19.60;32.00;;;;;;10532598;28;20250;-75
2022/09/23 11:12:01;;;;;;;3.30;3.10;;;19.60;31.80;;;;;;10532343;28;20973;-73
2022/09/23 11:17:18;;;;;;;3.50;3.20;;;19.70;32.10;;;;;;10540891;28;20290;-74
2022/09/23 11:22:36;;;;;;;3.13;2.93;;;19.70;31.90;;;;;;10574161;28;20222;-74
2022/09/23 11:27:55;;;;;;;2.90;2.70;;;19.80;31.60;;;;;;10481623;28;20309;-75
2022/09/23 11:33:13;;;;;;;3.00;2.80;;;19.80;31.50;;;;;;10489833;28;20239;-74
2022/09/23 11:38:23;;;;;;;2.80;2.53;;;19.80;31.80;;;;;;10494628;28;20223;-76
2022/09/23 11:43:28;;;;;;;2.90;2.70;;;19.90;31.40;;;;;;10496183;28;20239;-77
2022/09/23 11:48:40;;;;;;;3.20;3.00;;;19.90;31.70;;;;;;10510371;28;20227;-76
2022/09/23 11:53:48;;;;;;;3.17;2.87;;;20.00;30.80;;;;;;10503456;28;20253;-75
2022/09/23 11:58:58;;;;;;;3.20;3.00;;;20.00;30.90;;;;;;10500943;28;20230;-77
2022/09/23 12:04:09;;;;;;;2.80;2.60;;;20.10;30.10;;;;;;10501657;28;20306;-77
2022/09/23 12:09:27;;;;;;;2.70;2.50;;;20.10;30.10;;;;;;10511645;28;20328;-78
2022/09/23 12:14:59;;;;;;;2.93;2.67;;;20.20;30.00;;;;;;10513363;28;20243;-77
2022/09/23 12:20:19;;;;;;;3.00;2.80;;;20.20;29.70;;;;;;10503121;28;20228;-77
2022/09/23 12:25:46;;;;;;;2.63;2.27;;;20.20;29.30;;;;;;10506408;28;20239;-76
2022/09/23 12:30:51;;;;;;;2.80;2.60;;;20.30;30.00;;;;;;10501139;28;20223;-76
2022/09/23 12:36:02;;;;;;;2.60;2.40;;;20.30;30.50;;;;;;10518169;28;20821;-76
2022/09/23 12:41:24;;;;;;;2.67;2.47;;;20.30;29.90;;;;;;10504998;28;20231;-76
2022/09/23 12:46:28;;;;;;;2.90;2.57;;;20.30;29.80;;;;;;10513087;28;20570;-76
2022/09/23 12:51:35;;;;;;;2.70;2.50;;;20.30;29.90;;;;;;10507627;28;20708;-76
2022/09/23 12:56:57;;;;;;;2.97;2.67;;;20.40;29.80;;;;;;10506851;28;20236;-76
2022/09/23 13:02:24;;;;;;;3.17;2.87;;;20.40;29.70;;;;;;10508649;28;20228;-76
2022/09/23 13:07:32;;;;;;;3.00;2.80;;;20.50;29.40;;;;;;10517929;28;20223;-76
2022/09/23 13:12:39;;;;;;;2.50;2.30;;;20.50;29.00;;;;;;10514445;28;20215;-76
2022/09/23 13:17:42;;;;;;;2.60;2.50;;;20.50;29.70;;;;;;10513438;28;20231;-77
2022/09/23 13:23:16;;;;;;;2.70;2.50;;;20.60;29.90;;;;;;10523200;28;20227;-76
2022/09/23 13:28:28;;;;;;;2.33;2.23;;;20.60;29.40;;;;;;10511781;28;20685;-77
2022/09/23 13:33:38;;;;;;;3.87;2.50;;;20.70;29.10;;;;;;10511113;28;20228;-76
2022/09/23 13:38:44;;;;;;;2.70;2.50;;;20.70;29.20;;;;;;10513552;28;20813;-77
2022/09/23 13:43:50;;;;;;;2.90;2.70;;;20.80;29.30;;;;;;10522565;28;20568;-77
2022/09/23 13:48:54;;;;;;;2.80;2.60;;;20.80;29.20;;;;;;10513848;28;20224;-77
2022/09/23 13:54:01;;;;;;;2.60;2.40;;;20.80;29.30;;;;;;10523581;28;20216;-76
2022/09/23 13:59:24;;;;;;;2.40;2.20;;;20.80;29.10;;;;;;10512107;28;20254;-77
2022/09/23 14:04:27;;;;;;;2.20;2.10;;;20.80;28.90;;;;;;10512040;28;20708;-75
2022/09/23 14:09:34;;;;;;;3.23;2.30;;;20.90;29.50;;;;;;10510766;28;20281;-75
2022/09/23 14:14:40;;;;;;;2.60;2.40;;;20.90;29.70;;;;;;10503654;28;20226;-75
2022/09/23 14:19:44;;;;;;;2.30;2.20;;;21.00;28.90;;;;;;10513923;28;20624;-75
2022/09/23 14:24:49;;;;;;;2.10;2.00;;;21.00;29.40;;;;;;10506103;28;20224;-75
2022/09/23 14:29:52;;;;;;;2.27;2.17;;;21.10;29.10;;;;;;10507129;28;20273;-75
2022/09/23 14:35:08;;;;;;;2.27;2.07;;;21.10;29.00;;;;;;10506748;28;20232;-75
2022/09/23 14:40:16;;;;;;;1.63;1.53;;;21.20;28.40;;;;;;10503389;28;20215;-75
2022/09/23 14:45:22;;;;;;;3.83;2.10;;;21.20;28.80;;;;;;10500049;28;20728;-75
2022/09/23 14:50:38;;;;;;;1.97;1.87;;;21.30;28.80;;;;;;10498661;28;20248;-75
2022/09/23 14:55:43;;;;;;;2.03;1.93;;;21.30;28.70;;;;;;10506518;28;20722;-75
2022/09/23 15:00:52;;;;;;;2.63;2.43;;;21.30;28.50;;;;;;10505598;28;20223;-75
2022/09/23 15:05:58;;;;;;;2.43;2.23;;;21.30;28.10;;;;;;10501281;28;20656;-75
2022/09/23 15:11:04;;;;;;;2.40;2.20;;;21.30;28.50;;;;;;10501460;28;20623;-75
2022/09/23 15:16:13;;;;;;;4.17;2.17;;;21.20;28.20;;;;;;10505811;28;20231;-75
2022/09/23 15:21:20;;;;;;;2.83;2.13;;;21.20;28.30;;;;;;10503836;28;20240;-75
2022/09/23 15:26:26;;;;;;;2.40;2.20;;;21.30;28.40;;;;;;10502573;28;20235;-75
2022/09/23 15:31:29;;;;;;;2.30;2.00;;;21.30;28.20;;;;;;10499329;28;20318;-75
2022/09/23 15:36:32;;;;;;;2.30;2.00;;;21.30;28.50;;;;;;10505553;28;20711;-75
2022/09/23 15:41:37;;;;;;;2.70;2.50;;;21.30;28.60;;;;;;10497132;28;20726;-75
2022/09/23 15:46:46;;;;;;;21.87;4.53;;;21.30;28.20;;;;;;10505678;28;20238;-75
2022/09/23 15:51:50;;;;;;;3.53;2.50;;;21.30;28.10;;;;;;10500726;28;20227;-75
2022/09/23 15:56:56;;;;;;;2.20;2.10;;;21.20;28.20;;;;;;10503463;28;20256;-76
2022/09/23 16:02:06;;;;;;;2.10;1.90;;;21.20;28.00;;;;;;10508728;28;20244;-76
2022/09/23 16:07:15;;;;;;;2.77;1.87;;;21.10;28.20;;;;;;10511778;28;20223;-76
2022/09/23 16:12:22;;;;;;;1.80;1.70;;;21.10;28.80;;;;;;10513445;28;20674;-76
2022/09/23 16:17:27;;;;;;;2.10;1.80;;;21.10;29.10;;;;;;10523116;28;20773;-76
2022/09/23 16:22:31;;;;;;;1.87;1.70;;;21.00;29.20;;;;;;10512112;28;20715;-76
2022/09/23 16:27:35;;;;;;;1.80;1.70;;;21.00;29.10;;;;;;10514891;28;20594;-76
2022/09/23 16:32:38;;;;;;;1.80;1.70;;;20.90;29.30;;;;;;10517298;28;20769;-76
2022/09/23 16:37:45;;;;;;;1.87;1.60;;;20.90;29.50;;;;;;10515382;28;20235;-76
2022/09/23 16:42:53;;;;;;;3.27;2.00;;;20.80;29.60;;;;;;10506751;28;20235;-76
2022/09/23 16:47:56;;;;;;;2.67;1.70;;;20.80;29.70;;;;;;10497794;28;20239;-76
2022/09/23 16:52:59;;;;;;;3.57;2.10;;;20.70;29.50;;;;;;10507763;28;20224;-76
2022/09/23 16:58:04;;;;;;;2.30;1.83;;;20.60;29.40;;;;;;10505734;28;20228;-76
2022/09/23 17:08:28;;;;;;;2.20;1.83;;;20.30;29.70;;;;;;10507439;28;20230;-76
2022/09/23 17:13:33;;;;;;;2.10;1.90;;;20.20;29.80;;;;;;10509570;28;20277;-76
2022/09/23 17:18:37;;;;;;;2.20;2.00;;;20.10;30.00;;;;;;10518147;28;20676;-76
2022/09/23 17:23:40;;;;;;;3.70;2.33;;;20.00;30.00;;;;;;10519436;28;20255;-76
2022/09/23 17:28:45;;;;;;;2.87;2.67;;;19.90;30.10;;;;;;10508400;28;20824;-76
2022/09/23 17:33:49;;;;;;;3.13;2.70;;;19.80;30.20;;;;;;10519376;28;20232;-76
2022/09/23 17:38:53;;;;;;;2.83;2.50;;;19.70;30.20;;;;;;10506461;28;20680;-76
2022/09/23 17:43:59;;;;;;;4.27;2.57;;;19.60;30.20;;;;;;10511702;28;20262;-77
2022/09/23 17:49:03;;;;;;;2.10;1.90;;;19.50;30.30;;;;;;10510471;28;20250;-76
2022/09/23 17:54:06;;;;;;;2.27;1.87;;;19.50;30.20;;;;;;10516683;28;20239;-76
2022/09/23 17:59:12;;;;;;;3.20;3.00;;;19.40;30.30;;;;;;10519124;28;20232;-76
2022/09/23 18:04:15;;;;;;;4.00;2.97;;;19.20;30.20;;;;;;10510416;28;20595;-76
2022/09/23 18:09:19;;;;;;;3.17;2.97;;;19.00;30.00;;;;;;10506540;28;20753;-76
2022/09/23 18:14:25;;;;;;;3.43;3.13;;;18.80;30.40;;;;;;10513475;28;20219;-76
2022/09/23 18:19:28;;;;;;;3.17;2.87;;;18.60;30.70;;;;;;10511248;28;20278;-76
2022/09/23 18:24:36;;;;;;;5.03;4.40;;;18.50;30.60;;;;;;10507607;28;20278;-76
2022/09/23 18:29:41;;;;;;;7.90;6.10;;;18.40;30.60;;;;;;10507918;28;20983;-76
2022/09/23 18:34:45;;;;;;;6.50;4.80;;;18.30;30.80;;;;;;10505158;28;20230;-76
2022/09/23 18:39:48;;;;;;;6.10;5.60;;;18.10;30.60;;;;;;10503286;28;20258;-76
2022/09/23 18:44:55;;;;;;;7.00;5.43;;;17.90;30.90;;;;;;10508797;28;20223;-76
2022/09/23 18:55:19;;;;;;;12.83;10.67;;;17.80;31.10;;;;;;10508812;28;20224;-76
2022/09/23 19:00:24;;;;;;;11.10;9.90;;;17.60;31.10;;;;;;10516916;28;20326;-76
2022/09/23 19:05:28;;;;;;;14.77;13.17;;;17.50;31.60;;;;;;10517107;28;20309;-78
2022/09/23 19:10:31;;;;;;;12.27;11.13;;;17.40;31.60;;;;;;10510810;28;20246;-76
2022/09/23 19:15:37;;;;;;;14.17;12.87;;;17.30;31.70;;;;;;10514365;28;20235;-76
2022/09/23 19:20:49;;;;;;;11.70;10.67;;;17.30;31.90;;;;;;10514579;28;20263;-76
2022/09/23 19:25:52;;;;;;;12.03;10.90;;;17.10;32.20;;;;;;10509854;28;20220;-77
2022/09/23 19:30:57;;;;;;;8.63;7.83;;;17.00;31.70;;;;;;10506526;28;20609;-77
2022/09/23 19:36:01;;;;;;;8.77;7.93;;;16.90;32.20;;;;;;10506453;28;20573;-76
2022/09/23 19:41:06;;;;;;;7.43;6.77;;;16.80;32.10;;;;;;10507239;28;20282;-77
2022/09/23 19:46:11;;;;;;;6.47;5.87;;;16.80;32.30;;;;;;10510985;28;20727;-76
2022/09/23 19:51:15;;;;;;;5.90;5.50;;;16.80;32.70;;;;;;10503830;28;20222;-76
2022/09/23 19:56:18;;;;;;;8.37;6.80;;;16.70;32.30;;;;;;10506059;28;20233;-76
2022/09/23 20:01:24;;;;;;;6.00;5.40;;;16.70;32.40;;;;;;10510285;28;20247;-76
2022/09/23 20:06:29;;;;;;;8.57;7.77;;;16.60;32.50;;;;;;10511224;28;20227;-77
2022/09/23 20:11:33;;;;;;;7.23;6.63;;;16.60;32.60;;;;;;10516466;28;20231;-76
2022/09/23 20:16:37;;;;;;;7.77;7.07;;;16.50;32.40;;;;;;10511426;28;20280;-76
2022/09/23 20:21:41;;;;;;;6.30;5.80;;;16.40;32.70;;;;;;10510673;28;20696;-76
2022/09/23 20:32:06;;;;;;;7.13;6.53;;;16.20;33.20;;;;;;10513445;28;20642;-76
2022/09/23 20:37:09;;;;;;;7.57;5.50;;;16.10;33.10;;;;;;10507341;28;20224;-76
2022/09/23 20:42:13;;;;;;;7.13;6.53;;;16.00;33.00;;;;;;10506432;28;20251;-76
2022/09/23 20:47:18;;;;;;;6.80;6.20;;;16.00;33.00;;;;;;10511125;28;20290;-76
2022/09/23 20:52:21;;;;;;;7.23;6.53;;;15.90;32.90;;;;;;10513315;28;21013;-76
2022/09/23 20:57:26;;;;;;;7.93;6.70;;;15.90;32.90;;;;;;10512464;28;20220;-76
2022/09/23 21:02:31;;;;;;;7.70;6.90;;;15.90;32.90;;;;;;10504718;28;20998;-76
2022/09/23 21:07:34;;;;;;;11.20;10.10;;;15.90;33.20;;;;;;10512884;28;20330;-76
2022/09/23 21:12:37;;;;;;;9.63;8.60;;;15.80;32.80;;;;;;10510099;28;20659;-76
2022/09/23 21:17:45;;;;;;;7.57;6.60;;;15.80;32.80;;;;;;10513862;28;20747;-76
2022/09/23 21:22:49;;;;;;;7.00;6.30;;;15.70;33.80;;;;;;10507544;28;20224;-76
2022/09/23 21:27:53;;;;;;;7.57;6.70;;;15.70;33.40;;;;;;10509014;28;20231;-76
2022/09/23 21:32:58;;;;;;;6.60;5.87;;;15.70;33.40;;;;;;10509854;28;20227;-77
2022/09/23 21:38:01;;;;;;;6.57;5.63;;;15.70;33.80;;;;;;10510596;28;20236;-76
2022/09/23 21:43:04;;;;;;;5.60;5.10;;;15.60;33.40;;;;;;10512142;28;20227;-76
2022/09/23 21:48:09;;;;;;;7.20;6.60;;;15.60;33.40;;;;;;10520120;28;20611;-76
2022/09/23 21:53:12;;;;;;;6.30;5.20;;;15.60;34.70;;;;;;10510752;28;20680;-77
2022/09/23 21:58:15;;;;;;;5.63;5.13;;;15.50;33.40;;;;;;10522813;28;20228;-77
2022/09/23 22:03:20;;;;;;;5.80;5.30;;;15.50;33.50;;;;;;10516391;28;20227;-76
2022/09/23 22:08:23;;;;;;;5.60;5.20;;;15.40;33.90;;;;;;10513630;28;20227;-77
2022/09/23 22:13:26;;;;;;;5.60;5.10;;;15.40;33.70;;;;;;10522313;28;20250;-76
2022/09/23 22:18:31;;;;;;;6.13;5.53;;;15.40;33.70;;;;;;10514096;28;20242;-77
2022/09/23 22:23:34;;;;;;;7.27;6.13;;;15.30;34.10;;;;;;10518221;28;20250;-77
2022/09/23 22:33:59;;;;;;;6.63;5.97;;;15.20;33.80;;;;;;10512051;28;20285;-76
2022/09/23 22:39:03;;;;;;;6.73;6.13;;;15.00;34.30;;;;;;10510691;28;20857;-76
2022/09/23 22:44:07;;;;;;;6.90;5.30;;;14.90;34.30;;;;;;10509926;28;20747;-76
2022/09/23 22:49:12;;;;;;;7.93;6.40;;;14.90;34.40;;;;;;10519549;28;20263;-76
2022/09/23 22:54:15;;;;;;;6.37;5.77;;;14.90;35.00;;;;;;10520656;28;20225;-77
2022/09/23 22:59:18;;;;;;;7.73;5.83;;;14.90;34.50;;;;;;10517401;28;20687;-77
2022/09/23 23:04:23;;;;;;;6.10;5.50;;;14.90;34.60;;;;;;10516001;28;20247;-77
2022/09/23 23:09:26;;;;;;;5.90;5.40;;;14.80;34.90;;;;;;10515286;28;20276;-77
2022/09/23 23:14:30;;;;;;;6.53;5.50;;;14.80;34.50;;;;;;10512489;28;20230;-77
2022/09/23 23:19:35;;;;;;;6.97;5.77;;;14.80;34.70;;;;;;10512767;28;20219;-78
2022/09/23 23:24:39;;;;;;;4.97;4.57;;;14.80;35.20;;;;;;10513404;28;20247;-77
2022/09/23 23:29:42;;;;;;;4.90;4.40;;;14.70;34.60;;;;;;10505759;28;20219;-77
2022/09/23 23:34:46;;;;;;;5.33;4.83;;;14.60;34.80;;;;;;10516963;28;20224;-77
2022/09/23 23:39:50;;;;;;;5.73;5.23;;;14.60;35.50;;;;;;10512382;28;20236;-77
2022/09/23 23:44:54;;;;;;;7.43;5.30;;;14.50;35.20;;;;;;10509931;28;20228;-76
2022/09/23 23:49:58;;;;;;;5.67;5.17;;;14.50;35.30;;;;;;10523469;28;20291;-77
2022/09/23 23:55:01;;;;;;;4.13;3.83;;;14.50;35.70;;;;;;10515943;28;20220;-77
